Home > Products > Valid Products > TAF

000
FTUS42 KMLB 301100 RRA
TAFVRB
TAF
KVRB 301141Z 3012/3112 VRB03KT P6SM SKC
     FM301500 32005KT P6SM FEW040 FEW250
     FM301800 07008KT P6SM SCT040 SCT250
     FM310200 VRB03KT P6SM FEW040 SCT250=



000
FTUS42 KMLB 301100 RRA
TAFSFB
TAF
KSFB 301141Z 3012/3112 VRB03KT P6SM FEW100
     FM301500 32005KT P6SM FEW040 FEW250
     FM302200 30006KT P6SM VCSH SCT040 SCT250
     FM310200 VRB03KT P6SM FEW040 BKN250=



000
FTUS42 KMLB 301100 RRA
TAFDAB
TAF
KDAB 301141Z 3012/3112 VRB03KT P6SM FEW100
     FM301500 32005KT P6SM FEW040 FEW250
     FM302000 05008KT P6SM VCSH SCT040 SCT250
     FM310200 VRB03KT P6SM SCT050 BKN250=



000
FTUS42 KMLB 301100 RRA
TAFMCO
TAF
KMCO 301141Z 3012/3112 VRB03KT P6SM FEW100
     FM301500 32005KT P6SM FEW040 FEW250
     FM302200 30006KT P6SM VCSH SCT040 SCT250
     FM310200 VRB03KT P6SM FEW040 BKN250=



000
FTUS42 KMLB 301100 RRA
TAFMLB
TAF
KMLB 301141Z 3012/3112 VRB03KT P6SM SKC
     FM301500 32005KT P6SM FEW040 FEW250
     FM301800 07008KT P6SM SCT040 SCT250
     FM310200 VRB03KT P6SM FEW040 SCT250=



000
FTUS42 KMLB 301000 AAA
TAFSFB
TAF AMD
KSFB 301033Z 3011/3106 VRB03KT P6SM FEW100
     FM301500 32005KT P6SM FEW040 SCT250
     FM302200 30006KT P6SM VCSH SCT040 SCT250
     FM310200 VRB03KT P6SM FEW040 BKN250=



000
FTUS42 KMLB 301000 AAB
TAFMCO
TAF AMD
KMCO 301031Z 3011/3106 VRB03KT P6SM FEW100
     FM301500 32005KT P6SM FEW040 SCT250
     FM302200 30006KT P6SM VCSH SCT040 SCT250
     FM310200 VRB03KT P6SM FEW040 BKN250=



000
FTUS42 KMLB 301000 AAA
TAFDAB
TAF AMD
KDAB 301030Z 3011/3106 VRB03KT P6SM FEW100
     FM301500 32005KT P6SM FEW040 SCT250
     FM302000 05008KT P6SM VCSH SCT040 SCT250
     FM310200 VRB03KT P6SM SCT050 BKN250=



000
FTUS42 KMLB 300800 AAA
TAFMCO
TAF AMD
KMCO 300850Z 3009/3106 VRB03KT P6SM SCT100
      TEMPO 3010/3012 5SM BR
     FM301500 32005KT P6SM FEW040 SCT250
     FM302200 30006KT P6SM VCSH SCT040 SCT250
     FM310200 VRB03KT P6SM FEW040 BKN250=



000
FTUS42 KMLB 300500
TAFVRB
TAF
KVRB 300537Z 3006/3106 VRB03KT P6SM FEW250
     FM301500 32005KT P6SM FEW040 FEW250
     FM301800 07008KT P6SM SCT040 SCT250
     FM310200 VRB03KT P6SM FEW040 SCT250=



000
FTUS42 KMLB 300500
TAFDAB
TAF
KDAB 300537Z 3006/3106 VRB03KT P6SM FEW060 FEW250
      TEMPO 3010/3012 5SM BR
     FM301500 32005KT P6SM FEW040 SCT250
     FM302000 05008KT P6SM VCSH SCT040 SCT250
     FM310200 VRB03KT P6SM SCT050 BKN250=



000
FTUS42 KMLB 300500
TAFMCO
TAF
KMCO 300537Z 3006/3106 VRB03KT P6SM FEW060 FEW250
      TEMPO 3010/3012 5SM BR
     FM301500 32005KT P6SM FEW040 SCT250
     FM302200 30006KT P6SM VCSH SCT040 SCT250
     FM310200 VRB03KT P6SM FEW040 BKN250=



000
FTUS42 KMLB 300500
TAFSFB
TAF
KSFB 300537Z 3006/3106 VRB03KT P6SM FEW060 FEW250
      TEMPO 3010/3012 3SM BR
     FM301500 32005KT P6SM FEW040 SCT250
     FM302200 30006KT P6SM VCSH SCT040 SCT250
     FM310200 VRB03KT P6SM FEW040 BKN250=



000
FTUS42 KMLB 300500
TAFMLB
TAF
KMLB 300537Z 3006/3106 VRB03KT P6SM FEW250
     FM301500 32005KT P6SM FEW040 FEW250
     FM301800 07008KT P6SM SCT040 SCT250
     FM310200 VRB03KT P6SM FEW040 SCT250=



000
FTUS42 KMLB 300400 RRA
TAFMLB
TAF
KMLB 300409Z 3004/3024 VRB05KT P6SM FEW250
     FM300900 VRB03KT 4SM BR FEW250
     FM301300 32005KT P6SM FEW040 FEW250
     FM301800 07007KT P6SM FEW040 SCT250=



000
FTUS42 KMLB 300400 RRA
TAFSFB
TAF
KSFB 300409Z 3004/3024 VRB03KT P6SM FEW250
     FM300900 VRB03KT 3SM BR FEW005
     FM301300 32004KT P6SM FEW040 FEW250
     FM301800 30005KT P6SM VCTS SCT040CB SCT250=



000
FTUS42 KMLB 300400 RRA
TAFDAB
TAF
KDAB 300409Z 3004/3024 VRB03KT P6SM FEW050 FEW250
     FM300900 VRB03KT 5SM BR FEW250
     FM301300 31005KT P6SM FEW040 FEW250
     FM301800 01007KT P6SM VCTS SCT040CB SCT250=



000
FTUS42 KMLB 300400 RRA
TAFVRB
TAF
KVRB 300409Z 3004/3024 VRB03KT P6SM FEW250
     FM300900 VRB03KT 5SM BR FEW250
     FM301300 32005KT P6SM FEW040 FEW250
     FM301800 05007KT P6SM FEW040 SCT250=



000
FTUS42 KMLB 300300 AAA
TAFMCO
TAF AMD
KMCO 300304Z 3003/3024 VRB03KT P6SM FEW060 SCT250
     FM300900 VRB03KT 5SM BR FEW020
     FM301300 32004KT P6SM FEW030 SCT250
     FM301800 30005KT P6SM VCTS SCT040CB BKN250=



000
FTUS42 KMLB 292300
TAFMLB
TAF
KMLB 292324Z 3000/3024 VRB05KT P6SM FEW250
     FM300900 VRB03KT 4SM BR FEW250
     FM301300 32005KT P6SM FEW040 FEW250
     FM301800 07007KT P6SM FEW040 SCT250=



000
FTUS42 KMLB 292300
TAFMCO
TAF
KMCO 292324Z 3000/3024 VRB03KT P6SM FEW060 SCT250
     FM300900 VRB03KT 4SM BR FEW020
     FM301300 32004KT P6SM FEW030 SCT250
     FM301800 30005KT P6SM VCTS SCT040CB BKN250=



000
FTUS42 KMLB 292300
TAFSFB
TAF
KSFB 292324Z 3000/3024 09006KT P6SM FEW050
     FM300200 VRB03KT P6SM FEW250
     FM300900 VRB03KT 3SM BR FEW005
     FM301300 32004KT P6SM FEW040 FEW250
     FM301800 30005KT P6SM VCTS SCT040CB SCT250=



000
FTUS42 KMLB 292300
TAFVRB
TAF
KVRB 292324Z 3000/3024 VRB03KT P6SM FEW250
     FM300900 VRB03KT 5SM BR FEW250
     FM301300 32005KT P6SM FEW040 FEW250
     FM301800 05007KT P6SM FEW040 SCT250=



000
FTUS42 KMLB 292300
TAFDAB
TAF
KDAB 292324Z 3000/3024 VRB03KT P6SM FEW050 FEW250
     FM300900 VRB03KT 5SM BR FEW250
     FM301300 31005KT P6SM FEW040 FEW250
     FM301800 01007KT P6SM VCTS SCT040CB SCT250=



000
FTUS42 KMLB 292000 AAA
TAFMCO
TAF AMD
KMCO 292056Z 2921/3018 10004KT P6SM SCT060
     FM300200 VRB03KT P6SM FEW060
     FM301000 VRB03KT 3SM BCFG FEW060
     FM301200 34004KT P6SM FEW040=



000
FTUS42 KMLB 291700
TAFSFB
TAF
KSFB 291738Z 2918/3018 VRB03KT P6SM SCT040
     FM292100 12005KT P6SM SCT050
     FM300200 VRB02KT P6SM FEW060
     FM300900 VRB02KT 3SM BCFG FEW060
     FM301200 32004KT P6SM FEW040=



000
FTUS42 KMLB 291700
TAFMCO
TAF
KMCO 291738Z 2918/3018 VRB03KT P6SM SCT040
     FM292100 09004KT P6SM SCT050
     FM300200 VRB03KT P6SM FEW060
     FM301000 VRB03KT 3SM BCFG FEW060
     FM301200 34004KT P6SM FEW040=



000
FTUS42 KMLB 291700
TAFMLB
TAF
KMLB 291738Z 2918/3018 08008KT P6SM FEW040
     FM300200 VRB03KT P6SM FEW030
     FM301000 VRB02KT 3SM BCFG FEW030
     FM301200 33005KT P6SM FEW030=



000
FTUS42 KMLB 291700
TAFDAB
TAF
KDAB 291738Z 2918/3018 22004KT P6SM SCT050
     FM291900 08006KT P6SM SCT050
     FM300000 VRB02KT P6SM FEW050
     FM300900 VRB02KT 3SM BCFG FEW050
     FM301200 33005KT P6SM FEW040=



000
FTUS42 KMLB 291700
TAFVRB
TAF
KVRB 291738Z 2918/3018 08008KT P6SM FEW040
     FM300200 VRB03KT P6SM FEW030
     FM301300 33004KT P6SM FEW030=



000
FTUS42 KMLB 291400 AAA
TAFMCO
TAF AMD
KMCO 291459Z 2915/3012 VRB03KT P6SM FEW040
     FM292100 09005KT P6SM SCT050
     FM300200 VRB03KT P6SM FEW060 SCT250=



000
FTUS42 KMLB 291100
TAFDAB
TAF
KDAB 291132Z 2912/3012 00000KT P6SM FEW040
      TEMPO 2912/2913 6SM BR
     FM291700 08006KT P6SM SCT045
     FM300000 VRB02KT P6SM FEW050=



000
FTUS42 KMLB 291100
TAFSFB
TAF
KSFB 291132Z 2912/3012 00000KT P6SM FEW025
      TEMPO 2912/2913 MIFG FEW002
     FM291400 19003KT P6SM SCT040
     FM292100 10005KT P6SM SCT050
     FM300200 VRB02KT P6SM FEW060 SCT250=



000
FTUS42 KMLB 291100
TAFVRB
TAF
KVRB 291132Z 2912/3012 00000KT P6SM SKC
     FM291700 08008KT P6SM FEW040
     FM300200 VRB03KT P6SM FEW030=



000
FTUS42 KMLB 291100
TAFMCO
TAF
KMCO 291132Z 2912/3012 00000KT P6SM FEW025
      TEMPO 2912/2913 BCFG FEW002
     FM291400 VRB03KT P6SM SCT040
     FM292100 09005KT P6SM SCT050
     FM300200 VRB03KT P6SM FEW060 SCT250=



000
FTUS42 KMLB 291100
TAFMLB
TAF
KMLB 291132Z 2912/3012 VRB03KT P6SM SCT030
     FM291800 08008KT P6SM FEW040
     FM300200 VRB03KT P6SM FEW030=



000
FTUS42 KMLB 290800 AAA
TAFMCO
TAF AMD
KMCO 290859Z 2909/3006 VRB03KT P6SM BCFG FEW002
      TEMPO 2909/2913 3SM MIFG BR SCT001
     FM291400 VRB03KT P6SM SCT040
     FM292100 09005KT P6SM SCT050
     FM300200 VRB03KT P6SM FEW060 SCT250=



000
FTUS42 KMLB 290500
TAFMCO
TAF
KMCO 290539Z 2906/3006 VRB03KT P6SM FEW060
      TEMPO 2909/2913 3SM MIFG BR SCT001
     FM291400 VRB03KT P6SM SCT040
     FM292100 09005KT P6SM SCT050
     FM300200 VRB03KT P6SM FEW060 SCT250=



000
FTUS42 KMLB 290500
TAFDAB
TAF
KDAB 290539Z 2906/3006 00000KT P6SM FEW060
     FM291300 VRB03KT P6SM FEW035
     FM291700 08006KT P6SM SCT045
     FM300000 VRB02KT P6SM FEW050=



000
FTUS42 KMLB 290500
TAFMLB
TAF
KMLB 290539Z 2906/3006 VRB03KT P6SM FEW030
     FM291500 VRB03KT P6SM SCT030
     FM291800 08008KT P6SM FEW040
     FM300200 VRB03KT P6SM FEW030=



000
FTUS42 KMLB 290500
TAFVRB
TAF
KVRB 290539Z 2906/3006 VRB03KT P6SM SCT030
     FM291700 08008KT P6SM FEW040
     FM300200 VRB03KT P6SM FEW030=



000
FTUS42 KMLB 290500
TAFSFB
TAF
KSFB 290539Z 2906/3006 VRB03KT P6SM FEW060
     FM290900 00000KT 3SM MIFG BR SCT002
      TEMPO 2910/2912 1SM MIFG BR VV002
     FM291400 19003KT P6SM SCT040
     FM292100 10005KT P6SM SCT050
     FM300200 VRB02KT P6SM FEW060 SCT250=



000
FTUS42 KMLB 290300 AAA
TAFMCO
TAF AMD
KMCO 290300Z 2903/2924 10004KT P6SM SKC
      TEMPO 2909/2913 3SM MIFG BR SCT001
     FM291600 12003KT P6SM SCT045=



000
FTUS42 KMLB 282300 RRA
TAFDAB
TAF
KDAB 282344Z 2900/2924 00000KT P6SM SKC
     FM290600 00000KT 4SM MIFG BR SKC
     FM291300 VRB03KT P6SM FEW035
     FM291700 08007KT P6SM SCT045=



000
FTUS42 KMLB 282300 RRA
TAFVRB
TAF
KVRB 282344Z 2900/2924 VRB03KT P6SM SKC
     FM291500 VRB03KT P6SM SCT030
     FM291800 08008KT P6SM FEW040=



000
FTUS42 KMLB 282300 RRA
TAFMLB
TAF
KMLB 282344Z 2900/2924 VRB03KT P6SM SKC
     FM291500 VRB03KT P6SM SCT030
     FM291800 08008KT P6SM FEW040=



000
FTUS42 KMLB 282300 RRA
TAFMCO
TAF
KMCO 282344Z 2900/2924 00000KT P6SM SKC
      TEMPO 2909/2913 3SM MIFG BR SCT001
     FM291600 12003KT P6SM SCT045=



000
FTUS42 KMLB 282300 RRA
TAFSFB
TAF
KSFB 282344Z 2900/2924 00000KT P6SM SKC
     FM290900 00000KT 3SM MIFG BR SCT002
      TEMPO 2910/2912 1SM MIFG BR VV002
     FM291300 12003KT P6SM SCT045=



000
FTUS42 KMLB 282100 AAA
TAFMCO
TAF AMD
KMCO 282111Z 2821/2918 08006KT P6SM SCT050
     FM290200 VRB03KT P6SM SKC
     FM290900 00000KT 4SM BR SKC
     FM291300 VRB03KT P6SM FEW040=



000
FTUS42 KMLB 281700
TAFMCO
TAF
KMCO 281725Z 2818/2918 11006KT P6SM SCT040
     FM290200 VRB03KT P6SM SKC
     FM290900 00000KT 4SM BR SKC
     FM291300 VRB03KT P6SM FEW040=



000
FTUS42 KMLB 281700
TAFSFB
TAF
KSFB 281725Z 2818/2918 12005KT P6SM SCT040
     FM290200 VRB03KT P6SM SKC
     FM290900 00000KT 4SM BR SKC
     FM291300 VRB03KT P6SM FEW040=



000
FTUS42 KMLB 281700
TAFMLB
TAF
KMLB 281725Z 2818/2918 10009KT P6SM SCT040
     FM290200 VRB03KT P6SM FEW040=



000
FTUS42 KMLB 281700
TAFDAB
TAF
KDAB 281725Z 2818/2918 10007KT P6SM FEW040
     FM290000 VRB03KT P6SM FEW040
     FM290900 00000KT 4SM BR SKC
     FM291300 VRB03KT P6SM FEW040=



000
FTUS42 KMLB 281700
TAFVRB
TAF
KVRB 281725Z 2818/2918 10009KT P6SM SCT040
     FM290200 VRB03KT P6SM FEW040=



000
FTUS42 KMLB 281100 RRA
TAFSFB
TAF
KSFB 281141Z 2812/2912 VRB03KT P6SM SKC
      TEMPO 2812/2813 4SM BR SCT002
     FM281400 14005KT P6SM SCT040
     FM282100 11006KT P6SM FEW050
     FM290200 VRB03KT P6SM SKC=



000
FTUS42 KMLB 281100 RRA
TAFMCO
TAF
KMCO 281141Z 2812/2912 00000KT P6SM SKC
     FM281400 13005KT P6SM SCT040
     FM282100 10006KT P6SM FEW050
     FM290200 VRB03KT P6SM SKC=



000
FTUS42 KMLB 281100 RRA
TAFVRB
TAF
KVRB 281141Z 2812/2912 00000KT P6SM FEW035
     FM281500 10009KT P6SM SCT035
     FM290200 VRB03KT P6SM FEW035=



000
FTUS42 KMLB 281100 RRA
TAFDAB
TAF
KDAB 281141Z 2812/2912 00000KT P6SM FEW035
      TEMPO 2812/2813 4SM BR
     FM281400 15004KT P6SM SCT035
     FM281700 10007KT P6SM FEW040
     FM290000 00000KT P6SM FEW035=



000
FTUS42 KMLB 281100 RRA
TAFMLB
TAF
KMLB 281141Z 2812/2912 27003KT P6SM FEW035
     FM281500 10009KT P6SM SCT035
     FM290200 VRB03KT P6SM FEW035=



000
FTUS42 KMLB 280900 AAA
TAFMCO
TAF AMD
KMCO 280905Z 2809/2906 00000KT P6SM SKC
     FM281400 13006KT P6SM SCT040
     FM282100 10006KT P6SM FEW050
     FM290200 VRB03KT P6SM SKC=



000
FTUS42 KMLB 280500
TAFSFB
TAF
KSFB 280538Z 2806/2906 00000KT 5SM BR SKC
      TEMPO 2806/2808 1SM BR
     FM281400 14005KT P6SM SCT040
     FM282100 11006KT P6SM FEW050
     FM290200 VRB03KT P6SM SKC=



000
FTUS42 KMLB 280500
TAFMLB
TAF
KMLB 280538Z 2806/2906 00000KT P6SM FEW035
     FM281500 10009KT P6SM SCT035
     FM290200 VRB03KT P6SM FEW035=



000
FTUS42 KMLB 280500
TAFMCO
TAF
KMCO 280538Z 2806/2906 00000KT P6SM SKC
     FM281400 13006KT P6SM SCT040
     FM282100 10006KT P6SM FEW050
     FM290200 VRB03KT P6SM SKC=



000
FTUS42 KMLB 280500
TAFDAB
TAF
KDAB 280538Z 2806/2906 00000KT 5SM BR SKC
     FM281400 15004KT P6SM FEW035
     FM281700 10007KT P6SM FEW040
     FM290000 00000KT P6SM FEW035=



000
FTUS42 KMLB 280500
TAFVRB
TAF
KVRB 280538Z 2806/2906 00000KT P6SM SCT035
     FM281500 10009KT P6SM SCT035
     FM290200 VRB03KT P6SM FEW035=



000
FTUS42 KMLB 280300 AAA
TAFMCO
TAF AMD
KMCO 280304Z 2803/2824 00000KT P6SM SKC
     FM281600 13006KT P6SM FEW045=



000
FTUS42 KMLB 272300 RRA
TAFMCO
TAF
KMCO 272351Z 2800/2824 00000KT P6SM SKC
     FM281600 13006KT P6SM FEW045=



000
FTUS42 KMLB 272300 RRA
TAFMLB
TAF
KMLB 272351Z 2800/2824 07004KT P6SM SKC
     FM281500 11009KT P6SM FEW035=



000
FTUS42 KMLB 272300 RRA
TAFDAB
TAF
KDAB 272351Z 2800/2824 00000KT P6SM FEW250
     FM281600 10006KT P6SM FEW035=



000
FTUS42 KMLB 272300 RRA
TAFSFB
TAF
KSFB 272351Z 2800/2824 00000KT P6SM SKC
     FM281600 14006KT P6SM FEW045=



000
FTUS42 KMLB 272300 RRA
TAFVRB
TAF
KVRB 272351Z 2800/2824 12003KT P6SM SKC
     FM281500 11008KT P6SM FEW035=



000
FTUS42 KMLB 272100 AAA
TAFMCO
TAF AMD
KMCO 272106Z 2721/2818 10007KT P6SM SKC
     FM280200 VRB03KT P6SM SKC
     FM281400 13006KT P6SM SKC=



000
FTUS42 KMLB 271700
TAFVRB
TAF
KVRB 271727Z 2718/2818 09008KT P6SM SKC
     FM280000 VRB04KT P6SM SKC
     FM281400 13006KT P6SM SKC=



000
FTUS42 KMLB 271700
TAFMLB
TAF
KMLB 271727Z 2718/2818 09008KT P6SM SKC
     FM280000 VRB04KT P6SM SKC
     FM281400 13006KT P6SM SKC=



000
FTUS42 KMLB 271700
TAFMCO
TAF
KMCO 271727Z 2718/2818 11006KT P6SM SKC
     FM280200 VRB03KT P6SM SKC
     FM281400 13006KT P6SM SKC=



000
FTUS42 KMLB 271700
TAFDAB
TAF
KDAB 271727Z 2718/2818 09006KT P6SM SKC
     FM280000 VRB02KT P6SM SKC
     FM281400 14006KT P6SM SKC=



000
FTUS42 KMLB 271700
TAFSFB
TAF
KSFB 271727Z 2718/2818 11006KT P6SM SKC
     FM280200 VRB03KT P6SM SKC
     FM281400 13006KT P6SM SKC=



000
FTUS42 KMLB 271500 AAA
TAFMCO
TAF AMD
KMCO 271509Z 2715/2812 05005KT P6SM SKC
     FM271800 11006KT P6SM SKC
     FM280200 VRB03KT P6SM SKC=



    US Dept of Commerce
    National Oceanic and Atmospheric Administration
    National Weather Service
    1325 East West Highway
    Silver Spring, MD 20910
    Page Author: NWS Internet Services Team
Disclaimer
Information Quality
Credits
Glossary
Privacy Policy
Freedom of Information Act (FOIA)
About Us
Career Opportunities